Time;durP1;ratioP1;P1;durP2;ratioP2;P2;SDS_P1;SDS_P2;PMS_P1;PMS_P2;Temp;Humidity;BMP_temperature;BMP_pressure;BME280_temperature;BME280_humidity;BME280_pressure;Samples;Min_cycle;Max_cycle;Signal;HPM_P1;HPM_P2
2022/10/20 00:01:10;;;;;;;20.70;8.75;;;;;;;13.05;98.16;93122.44;4957310;28;20046;-79
2022/10/20 00:03:36;;;;;;;20.63;8.77;;;;;;;13.03;98.48;93124.56;4956260;29;20405;-80
2022/10/20 00:06:25;;;;;;;23.38;8.18;;;;;;;13.02;98.56;93136.16;4954675;29;20039;-80
2022/10/20 00:08:52;;;;;;;19.90;8.35;;;;;;;12.98;98.62;93133.31;4948831;29;20486;-80
2022/10/20 00:11:19;;;;;;;15.57;7.63;;;;;;;12.99;98.49;93131.44;4953666;28;20035;-80
2022/10/20 00:13:47;;;;;;;16.05;8.32;;;;;;;13.00;97.92;93135.66;4938709;29;20061;-81
2022/10/20 00:16:13;;;;;;;15.50;7.20;;;;;;;13.01;98.23;93137.19;4956886;29;20421;-81
2022/10/20 00:18:39;;;;;;;13.15;7.00;;;;;;;13.00;98.22;93131.16;4936882;29;20442;-82
2022/10/20 00:21:17;;;;;;;14.93;6.65;;;;;;;13.01;97.86;93132.72;4938755;29;20032;-80
2022/10/20 00:23:43;;;;;;;15.88;6.00;;;;;;;13.00;98.14;93127.78;4955179;29;20043;-79
2022/10/20 00:26:17;;;;;;;15.13;7.20;;;;;;;12.98;98.65;93130.69;4936567;29;20038;-81
2022/10/20 00:28:44;;;;;;;15.02;6.85;;;;;;;12.97;98.32;93139.63;4954808;28;20485;-79
2022/10/20 00:31:10;;;;;;;17.33;6.28;;;;;;;12.94;98.11;93134.94;4956737;28;20035;-81
2022/10/20 00:33:36;;;;;;;17.50;6.47;;;;;;;12.95;98.62;93138.34;4957478;28;20042;-80
2022/10/20 00:36:04;;;;;;;16.13;7.05;;;;;;;12.92;98.73;93137.06;4955446;29;20039;-79
2022/10/20 00:38:30;;;;;;;13.80;6.68;;;;;;;12.92;99.12;93144.94;4943524;29;20095;-79
2022/10/20 00:40:58;;;;;;;21.23;6.78;;;;;;;12.91;99.30;93141.53;4950476;29;20035;-80
2022/10/20 00:44:21;;;;;;;20.05;6.72;;;;;;;12.85;99.58;93139.25;4955158;28;20035;-79
2022/10/20 00:46:47;;;;;;;11.40;6.10;;;;;;;12.85;99.28;93139.25;4886832;29;20521;-79
2022/10/20 00:49:22;;;;;;;14.43;6.30;;;;;;;12.86;98.93;93144.25;4881231;29;20037;-81
2022/10/20 00:51:50;;;;;;;14.48;6.85;;;;;;;12.86;99.21;93135.59;4933142;28;20474;-80
2022/10/20 00:54:21;;;;;;;12.25;6.47;;;;;;;12.86;99.28;93136.38;4937785;29;20123;-80
2022/10/20 00:56:48;;;;;;;17.17;7.80;;;;;;;12.82;99.30;93139.84;4947532;29;20392;-80
2022/10/20 00:59:18;;;;;;;13.90;7.07;;;;;;;12.82;99.48;93145.09;4955111;29;20039;-80
2022/10/20 01:01:44;;;;;;;17.45;7.32;;;;;;;12.81;99.33;93138.25;4950934;28;20035;-81
2022/10/20 01:04:10;;;;;;;14.23;7.85;;;;;;;12.82;99.42;93139.84;4953938;29;20536;-79
2022/10/20 01:06:36;;;;;;;18.02;7.30;;;;;;;12.81;99.42;93146.16;4955088;29;20106;-80
2022/10/20 01:09:03;;;;;;;20.98;7.53;;;;;;;12.80;100.00;93136.72;4955548;28;20039;-80
2022/10/20 01:11:41;;;;;;;15.23;7.53;;;;;;;12.80;100.00;93134.09;4949873;29;20044;-80
2022/10/20 01:14:33;;;;;;;14.85;7.03;;;;;;;12.78;100.00;93138.84;4934479;29;20038;-80
2022/10/20 01:17:26;;;;;;;15.73;7.68;;;;;;;12.75;100.00;93134.16;4948496;29;20053;-79
2022/10/20 01:20:23;;;;;;;15.45;8.43;;;;;;;12.71;100.00;93139.97;4956191;28;20035;-79
2022/10/20 01:23:20;;;;;;;17.40;8.20;;;;;;;12.67;100.00;93136.34;4952239;28;20023;-79
2022/10/20 01:26:19;;;;;;;19.00;8.52;;;;;;;12.67;100.00;93138.19;4937913;29;20046;-80
2022/10/20 01:29:03;;;;;;;15.80;7.72;;;;;;;12.65;100.00;93135.06;4944849;29;20779;-83
2022/10/20 01:31:40;;;;;;;14.88;7.82;;;;;;;12.64;100.00;93134.28;4953834;29;20039;-80
2022/10/20 01:34:12;;;;;;;16.48;8.15;;;;;;;12.61;100.00;93141.94;4953515;29;20043;-81
2022/10/20 01:36:42;;;;;;;17.95;8.45;;;;;;;12.55;100.00;93135.97;4953860;28;20039;-81
2022/10/20 01:39:41;;;;;;;18.48;7.35;;;;;;;12.55;100.00;93135.19;4957942;28;20038;-81
2022/10/20 01:42:14;;;;;;;13.05;7.28;;;;;;;12.52;100.00;93139.19;4933957;29;20044;-80
2022/10/20 01:44:41;;;;;;;15.98;7.60;;;;;;;12.50;100.00;93131.56;4962027;28;20039;-80
2022/10/20 01:47:10;;;;;;;15.77;8.32;;;;;;;12.49;100.00;93131.84;4955030;29;20179;-81
2022/10/20 01:49:36;;;;;;;14.65;8.48;;;;;;;12.43;100.00;93122.50;4957176;28;20690;-80
2022/10/20 01:52:02;;;;;;;24.13;8.20;;;;;;;12.44;100.00;93132.69;4958961;28;20500;-81
2022/10/20 01:54:29;;;;;;;14.80;8.05;;;;;;;12.44;100.00;93126.66;4958599;29;20035;-79
2022/10/20 01:57:13;;;;;;;18.48;7.97;;;;;;;12.42;100.00;93132.19;4960191;28;20058;-80
2022/10/20 02:00:15;;;;;;;20.23;8.65;;;;;;;12.42;100.00;93120.91;4954793;28;20573;-81
2022/10/20 02:02:47;;;;;;;16.15;8.15;;;;;;;12.36;100.00;93111.53;4919261;29;20024;-80
2022/10/20 02:05:43;;;;;;;14.97;8.20;;;;;;;12.37;100.00;93118.34;4940758;29;20058;-80
2022/10/20 02:08:19;;;;;;;21.63;9.40;;;;;;;12.36;100.00;93119.41;4958468;28;20294;-80
2022/10/20 02:10:48;;;;;;;19.15;8.98;;;;;;;12.32;100.00;93116.56;4956367;29;20541;-80
2022/10/20 02:13:17;;;;;;;19.17;9.02;;;;;;;12.31;100.00;93114.22;4957886;28;20022;-80
2022/10/20 02:15:46;;;;;;;19.85;9.25;;;;;;;12.23;100.00;93108.53;4995254;28;20042;-80
2022/10/20 02:18:17;;;;;;;15.93;8.52;;;;;;;12.28;100.00;93116.34;4941609;29;20035;-81
2022/10/20 02:20:46;;;;;;;16.88;8.15;;;;;;;12.26;100.00;93115.06;4941224;29;20043;-80
2022/10/20 02:23:11;;;;;;;19.75;8.30;;;;;;;12.27;100.00;93117.41;4960045;28;20043;-81
2022/10/20 02:25:39;;;;;;;18.38;9.65;;;;;;;12.26;100.00;93118.47;4958512;29;20118;-81
2022/10/20 02:28:09;;;;;;;21.42;9.02;;;;;;;12.23;100.00;93115.63;4955845;29;20055;-81
2022/10/20 02:30:36;;;;;;;22.17;9.35;;;;;;;12.23;100.00;93118.25;4952581;29;20038;-80
2022/10/20 02:33:03;;;;;;;19.90;9.23;;;;;;;12.22;100.00;93122.69;4959274;28;20031;-80
2022/10/20 02:35:31;;;;;;;20.45;9.57;;;;;;;12.20;100.00;93127.44;4938768;29;20047;-81
2022/10/20 02:37:57;;;;;;;15.57;8.60;;;;;;;12.21;100.00;93130.88;4952688;28;20050;-80
2022/10/20 02:40:23;;;;;;;19.17;8.95;;;;;;;12.18;100.00;93124.34;4958013;29;20126;-81
2022/10/20 02:42:49;;;;;;;23.95;8.65;;;;;;;12.20;100.00;93127.44;4955575;29;20063;-80
2022/10/20 02:45:14;;;;;;;18.77;9.07;;;;;;;12.21;100.00;93125.63;4947394;29;20047;-81
2022/10/20 02:47:40;;;;;;;17.92;8.50;;;;;;;12.20;100.00;93126.66;4947640;29;20031;-81
2022/10/20 02:50:07;;;;;;;18.58;9.48;;;;;;;12.20;100.00;93127.44;4958906;28;20035;-80
2022/10/20 02:52:33;;;;;;;15.82;9.15;;;;;;;12.17;100.00;93129.88;4957578;28;20071;-81
2022/10/20 02:54:58;;;;;;;23.30;8.60;;;;;;;12.15;100.00;93127.50;4957473;28;20050;-80
2022/10/20 02:57:25;;;;;;;15.07;8.48;;;;;;;12.15;100.00;93124.88;4940162;29;20031;-78
2022/10/20 02:59:51;;;;;;;20.23;9.75;;;;;;;12.10;100.00;93127.56;4955683;28;20042;-81
2022/10/20 03:02:17;;;;;;;17.67;9.25;;;;;;;12.11;100.00;93126.50;4950173;29;20023;-81
2022/10/20 03:04:42;;;;;;;19.92;9.38;;;;;;;12.09;100.00;93144.38;4959468;28;20040;-81
2022/10/20 03:07:08;;;;;;;21.33;9.82;;;;;;;12.08;100.00;93134.94;4956743;29;20067;-81
2022/10/20 03:09:33;;;;;;;18.40;9.50;;;;;;;12.07;100.00;93120.28;4954373;28;20075;-81
2022/10/20 03:11:59;;;;;;;17.05;8.95;;;;;;;12.06;100.00;93135.22;4958445;28;20043;-81
2022/10/20 03:14:25;;;;;;;17.92;8.48;;;;;;;12.05;100.00;93127.63;4955250;29;20352;-81
2022/10/20 03:16:50;;;;;;;19.55;9.95;;;;;;;12.05;100.00;93132.88;4956766;28;20401;-80
2022/10/20 03:19:16;;;;;;;17.33;9.82;;;;;;;12.06;100.00;93131.81;4938914;29;20071;-80
2022/10/20 03:21:41;;;;;;;22.67;10.88;;;;;;;12.04;100.00;93126.84;4939576;29;20131;-81
2022/10/20 03:24:07;;;;;;;21.33;8.90;;;;;;;12.03;100.00;93137.63;4943472;29;20036;-79
2022/10/20 03:26:32;;;;;;;21.27;9.73;;;;;;;11.99;100.00;93123.50;4940613;29;20035;-81
2022/10/20 03:28:58;;;;;;;21.25;10.30;;;;;;;11.97;100.00;93115.91;4939817;29;20039;-80
2022/10/20 03:31:23;;;;;;;19.15;9.40;;;;;;;11.98;100.00;93117.47;4959161;28;20035;-81
2022/10/20 03:33:49;;;;;;;20.20;9.10;;;;;;;12.00;100.00;93125.03;4958088;29;20039;-81
2022/10/20 03:36:15;;;;;;;22.70;9.52;;;;;;;11.98;100.00;93121.91;4958182;29;20364;-81
2022/10/20 03:38:44;;;;;;;17.83;8.93;;;;;;;11.99;100.00;93123.50;4941850;29;20057;-81
2022/10/20 03:41:10;;;;;;;17.73;9.55;;;;;;;11.98;100.00;93127.16;4959370;28;20125;-81
2022/10/20 03:43:37;;;;;;;19.90;9.30;;;;;;;11.98;100.00;93124.53;4957682;28;20050;-81
2022/10/20 03:46:06;;;;;;;19.55;8.27;;;;;;;11.95;100.00;93130.34;4957774;29;20031;-81
2022/10/20 03:48:32;;;;;;;19.92;8.98;;;;;;;11.94;100.00;93124.34;4956674;29;20041;-81
2022/10/20 03:50:59;;;;;;;16.30;8.60;;;;;;;11.93;100.00;93124.59;4955301;29;20118;-81
2022/10/20 03:53:25;;;;;;;15.77;9.00;;;;;;;11.91;100.00;93126.72;4957792;28;20405;-81
2022/10/20 03:55:50;;;;;;;15.65;8.75;;;;;;;11.91;100.00;93126.72;4957480;29;20039;-81
2022/10/20 03:58:16;;;;;;;20.60;9.80;;;;;;;11.90;100.00;93120.69;4958453;29;20094;-80
2022/10/20 04:00:42;;;;;;;22.85;9.70;;;;;;;11.90;100.00;93128.56;4948380;28;20042;-81
2022/10/20 04:03:08;;;;;;;25.98;9.75;;;;;;;11.88;100.00;93123.59;4947405;28;20054;-81
2022/10/20 04:05:33;;;;;;;19.08;9.02;;;;;;;11.90;100.00;93123.31;4956056;28;20417;-83
2022/10/20 04:07:59;;;;;;;28.15;9.68;;;;;;;11.90;100.00;93122.53;4943744;28;20051;-79
2022/10/20 04:10:25;;;;;;;20.60;9.32;;;;;;;11.91;100.00;93131.97;4957742;29;20089;-80
2022/10/20 04:12:50;;;;;;;18.20;9.57;;;;;;;11.87;100.00;93127.28;4951928;29;20033;-80
2022/10/20 04:15:17;;;;;;;20.50;9.52;;;;;;;11.90;100.00;93130.41;4957884;29;20044;-79
2022/10/20 04:17:43;;;;;;;19.27;9.73;;;;;;;11.91;100.00;93134.59;4957286;29;20413;-81
2022/10/20 04:20:09;;;;;;;19.83;9.38;;;;;;;11.91;100.00;93131.97;4957673;28;20043;-79
2022/10/20 04:22:34;;;;;;;19.70;9.80;;;;;;;11.88;100.00;93136.72;4955341;28;20046;-80
2022/10/20 04:25:00;;;;;;;20.95;9.90;;;;;;;11.89;100.00;93137.50;4953144;28;20508;-79
2022/10/20 04:27:27;;;;;;;21.95;10.20;;;;;;;11.86;100.00;93140.63;4952050;29;20075;-79
2022/10/20 04:29:53;;;;;;;20.90;10.18;;;;;;;11.87;100.00;93144.84;4945915;28;20118;-80
2022/10/20 04:32:18;;;;;;;18.45;9.13;;;;;;;11.87;100.00;93143.03;4953374;28;20043;-79
2022/10/20 04:34:45;;;;;;;18.98;9.77;;;;;;;11.85;100.00;93142.50;4952055;28;20081;-81
2022/10/20 04:37:10;;;;;;;17.40;9.02;;;;;;;11.80;100.00;93142.53;4957087;28;21229;-82
2022/10/20 04:39:36;;;;;;;19.17;9.48;;;;;;;11.81;100.00;93145.94;4952143;29;20077;-81
2022/10/20 04:42:02;;;;;;;19.58;8.90;;;;;;;11.80;100.00;93139.94;4967778;28;20513;-82
2022/10/20 04:44:27;;;;;;;20.25;10.70;;;;;;;11.80;100.00;93142.53;4960025;28;20089;-77
2022/10/20 04:46:53;;;;;;;23.58;9.38;;;;;;;11.80;100.00;93132.06;4956647;28;20039;-78
2022/10/20 04:49:19;;;;;;;24.48;11.15;;;;;;;11.78;100.00;93134.16;4954105;28;20099;-80
2022/10/20 04:51:45;;;;;;;20.95;9.43;;;;;;;11.80;100.00;93136.53;4938452;29;20486;-77
2022/10/20 04:54:10;;;;;;;18.85;9.10;;;;;;;11.78;100.00;93134.16;4938672;29;20035;-78
2022/10/20 04:56:36;;;;;;;18.27;9.52;;;;;;;11.78;100.00;93138.63;4955848;28;20047;-79
2022/10/20 04:59:02;;;;;;;22.10;9.80;;;;;;;11.77;100.00;93132.59;4956860;28;20047;-79
2022/10/20 05:01:29;;;;;;;21.02;11.43;;;;;;;11.80;100.00;93126.81;4961515;28;20019;-81
2022/10/20 05:03:55;;;;;;;19.02;10.15;;;;;;;11.78;100.00;93123.69;4959747;28;20035;-80
2022/10/20 05:06:24;;;;;;;18.60;9.50;;;;;;;11.79;100.00;93124.44;4961472;28;20109;-81
2022/10/20 05:08:52;;;;;;;21.05;9.80;;;;;;;11.77;100.00;93119.47;4960627;28;20406;-81
2022/10/20 05:11:19;;;;;;;19.70;9.70;;;;;;;11.76;100.00;93123.16;4959924;29;20039;-81
2022/10/20 05:13:45;;;;;;;18.65;9.57;;;;;;;11.78;100.00;93121.06;4958459;28;20035;-81
2022/10/20 05:16:11;;;;;;;25.92;9.52;;;;;;;11.77;100.00;93116.06;4957512;28;20050;-81
2022/10/20 05:18:37;;;;;;;24.27;9.90;;;;;;;11.77;100.00;93110.84;4951807;29;20039;-83
2022/10/20 05:21:11;;;;;;;16.50;8.93;;;;;;;11.78;100.00;93115.03;4955448;29;20516;-82
2022/10/20 05:23:38;;;;;;;23.23;8.82;;;;;;;11.78;100.00;93107.94;4956825;29;20047;-81
2022/10/20 05:26:06;;;;;;;22.17;9.55;;;;;;;11.81;100.00;93112.63;4959760;28;20031;-82
2022/10/20 05:28:31;;;;;;;20.35;10.18;;;;;;;11.82;100.00;93108.94;4959145;28;20636;-81
2022/10/20 05:31:02;;;;;;;25.17;10.35;;;;;;;11.84;100.00;93114.72;4954724;29;20067;-80
2022/10/20 05:33:28;;;;;;;21.92;10.02;;;;;;;11.85;100.00;93116.25;4958247;29;20135;-81
2022/10/20 05:35:53;;;;;;;20.38;9.77;;;;;;;11.86;100.00;93115.19;4954184;29;20043;-81
2022/10/20 05:38:19;;;;;;;24.92;9.50;;;;;;;11.92;100.00;93123.06;4942618;29;20048;-80
2022/10/20 05:40:44;;;;;;;20.35;10.10;;;;;;;11.95;100.00;93122.47;4947332;29;20054;-82
2022/10/20 05:43:10;;;;;;;24.65;10.63;;;;;;;11.98;100.00;93114.03;4959230;28;20083;-82
2022/10/20 05:45:35;;;;;;;22.83;9.65;;;;;;;12.01;100.00;93110.88;4957941;29;20101;-81
2022/10/20 05:48:01;;;;;;;22.67;8.65;;;;;;;12.05;100.00;93109.28;4959738;28;20521;-81
2022/10/20 05:50:26;;;;;;;21.13;9.00;;;;;;;12.09;100.00;93112.88;4960629;28;20580;-81
2022/10/20 05:52:52;;;;;;;22.58;9.77;;;;;;;12.12;100.00;93111.56;4943109;29;20652;-80
2022/10/20 05:55:18;;;;;;;19.67;9.48;;;;;;;12.15;100.00;93118.88;4961063;28;20045;-80
2022/10/20 05:57:43;;;;;;;21.90;8.52;;;;;;;12.17;100.00;93122.75;4942176;29;20486;-80
2022/10/20 06:00:10;;;;;;;18.15;8.32;;;;;;;12.20;100.00;93129.28;4924800;29;20054;-80
2022/10/20 06:02:39;;;;;;;24.83;8.63;;;;;;;12.24;100.00;93123.19;4942750;29;20051;-82
2022/10/20 06:05:05;;;;;;;18.40;8.27;;;;;;;12.26;100.00;93128.19;4939879;29;20064;-82
2022/10/20 06:07:30;;;;;;;30.05;10.00;;;;;;;12.28;100.00;93126.84;4941378;29;20090;-81
2022/10/20 06:09:56;;;;;;;19.05;8.55;;;;;;;12.32;100.00;93126.28;4924656;29;20406;-79
2022/10/20 06:12:21;;;;;;;21.80;8.80;;;;;;;12.39;100.00;93131.97;4941425;29;20035;-80
2022/10/20 06:14:47;;;;;;;18.67;8.77;;;;;;;12.51;100.00;93137.59;4941119;29;20126;-79
2022/10/20 06:17:12;;;;;;;21.15;8.02;;;;;;;12.65;100.00;93141.13;4941801;29;20517;-80
2022/10/20 06:19:38;;;;;;;18.80;8.07;;;;;;;12.74;100.00;93143.09;4942117;29;20027;-79
2022/10/20 06:22:03;;;;;;;22.33;8.35;;;;;;;12.79;100.00;93141.19;4925250;29;20048;-80
2022/10/20 06:24:29;;;;;;;17.52;8.23;;;;;;;12.79;100.00;93150.91;4943693;29;20036;-80
2022/10/20 06:26:54;;;;;;;18.15;7.43;;;;;;;12.79;100.00;93153.53;4944730;29;20086;-79
2022/10/20 06:29:20;;;;;;;13.80;6.93;;;;;;;12.78;100.00;93155.38;4943178;29;20044;-79
2022/10/20 06:31:48;;;;;;;20.13;7.13;;;;;;;12.79;100.00;93156.16;4943176;29;20046;-80
2022/10/20 06:34:17;;;;;;;21.85;7.20;;;;;;;12.86;100.00;93149.50;4944448;29;20106;-79
2022/10/20 06:36:43;;;;;;;14.90;6.35;;;;;;;13.27;100.00;93166.53;4945414;29;20040;-80
2022/10/20 06:39:16;;;;;;;16.20;6.22;;;;;;;13.59;100.00;93173.69;4943726;29;20050;-80
2022/10/20 06:41:42;;;;;;;20.60;7.18;;;;;;;13.76;100.00;93178.44;4945412;29;20040;-80
2022/10/20 06:44:18;;;;;;;17.10;7.45;;;;;;;13.74;100.00;93173.47;4928975;29;20035;-80
2022/10/20 06:46:44;;;;;;;21.17;7.10;;;;;;;13.67;100.00;93186.22;4943759;29;20075;-80
2022/10/20 06:49:10;;;;;;;20.88;7.57;;;;;;;13.59;100.00;93188.72;4944925;29;20060;-80
2022/10/20 06:51:36;;;;;;;19.15;8.80;;;;;;;13.53;100.00;93185.34;4944085;29;20054;-80
2022/10/20 06:54:03;;;;;;;16.65;7.75;;;;;;;13.44;100.00;93182.63;4945842;29;20044;-80
2022/10/20 06:56:31;;;;;;;17.38;7.50;;;;;;;13.43;100.00;93191.56;4944595;29;20074;-80
2022/10/20 06:58:58;;;;;;;17.88;8.00;;;;;;;13.39;100.00;93198.47;4945058;29;20044;-80
2022/10/20 07:01:30;;;;;;;17.98;7.05;;;;;;;13.36;100.00;93193.78;4943533;29;20035;-80
2022/10/20 07:03:59;;;;;;;15.80;7.50;;;;;;;13.35;100.00;93186.94;4943951;29;20035;-80
2022/10/20 07:06:28;;;;;;;14.52;7.55;;;;;;;13.37;100.00;93197.97;4942695;29;20047;-80
2022/10/20 07:08:55;;;;;;;18.65;7.25;;;;;;;13.35;100.00;93184.31;4943571;29;20040;-79
2022/10/20 07:11:24;;;;;;;15.02;6.90;;;;;;;13.43;100.00;93194.19;4943758;29;20517;-80
2022/10/20 07:13:50;;;;;;;22.80;7.90;;;;;;;13.73;100.00;93197.41;4928325;29;20047;-79
2022/10/20 07:16:21;;;;;;;14.68;8.27;;;;;;;14.14;99.77;93199.38;4944040;29;20391;-79
2022/10/20 07:18:48;;;;;;;16.48;8.10;;;;;;;14.49;98.75;93200.56;4942738;29;20036;-81
2022/10/20 07:21:16;;;;;;;21.80;8.40;;;;;;;15.26;96.81;93195.63;4941831;29;20047;-80
2022/10/20 07:23:42;;;;;;;16.77;8.10;;;;;;;16.09;91.83;93200.59;4943438;29;20039;-79
2022/10/20 07:26:12;;;;;;;14.57;6.90;;;;;;;17.04;86.29;93198.34;4941948;29;20403;-79
2022/10/20 07:28:41;;;;;;;15.35;6.55;;;;;;;17.80;81.68;93193.69;4943858;29;20047;-80
2022/10/20 07:31:11;;;;;;;14.43;6.93;;;;;;;18.28;79.59;93205.94;4941902;29;20038;-79
2022/10/20 07:33:37;;;;;;;12.45;6.53;;;;;;;18.78;77.12;93207.19;4942478;29;20083;-81
2022/10/20 07:36:23;;;;;;;15.98;6.13;;;;;;;19.23;75.17;93212.72;4941006;29;20040;-81
2022/10/20 07:38:51;;;;;;;13.52;6.32;;;;;;;19.69;71.52;93208.34;4942151;29;20042;-80
2022/10/20 07:41:16;;;;;;;12.23;5.97;;;;;;;19.78;69.29;93208.28;4943739;29;20023;-81
2022/10/20 07:43:43;;;;;;;14.32;6.28;;;;;;;19.26;69.24;93201.47;4943047;29;20055;-81
2022/10/20 07:46:10;;;;;;;16.35;6.60;;;;;;;19.02;71.38;93214.56;4942162;29;20498;-81
2022/10/20 07:48:36;;;;;;;13.35;5.97;;;;;;;18.82;72.56;93203.56;4942192;29;20214;-80
2022/10/20 07:51:20;;;;;;;14.80;6.20;;;;;;;18.71;73.29;93203.16;4942149;29;20046;-81
2022/10/20 07:53:47;;;;;;;12.00;5.53;;;;;;;18.90;71.72;93216.03;4943700;29;20023;-81
2022/10/20 07:56:13;;;;;;;16.35;6.60;;;;;;;19.13;69.10;93207.78;4943714;29;20032;-80
2022/10/20 07:58:40;;;;;;;17.35;8.30;;;;;;;19.57;69.53;93208.28;4942264;29;20066;-81
2022/10/20 08:01:05;;;;;;;20.88;7.28;;;;;;;19.59;68.11;93195.47;4942626;29;20063;-81
2022/10/20 08:03:31;;;;;;;19.25;7.80;;;;;;;19.68;68.11;93204.13;4941660;29;20067;-80
2022/10/20 08:05:57;;;;;;;16.30;6.82;;;;;;;19.72;69.19;93212.25;4943731;29;20055;-81
2022/10/20 08:08:23;;;;;;;19.95;7.72;;;;;;;19.63;67.55;93208.84;4942053;29;20055;-81
2022/10/20 08:10:48;;;;;;;19.48;9.10;;;;;;;19.47;66.43;93211.31;4942130;29;20103;-80
2022/10/20 08:13:14;;;;;;;18.83;9.65;;;;;;;19.58;66.37;93215.13;4941982;29;20046;-81
2022/10/20 08:15:39;;;;;;;24.45;10.18;;;;;;;19.42;66.31;93212.28;4959013;29;20057;-80
2022/10/20 08:18:05;;;;;;;14.68;6.40;;;;;;;19.46;67.58;93215.84;4944831;29;20539;-80
2022/10/20 08:20:31;;;;;;;16.55;8.05;;;;;;;19.31;65.71;93222.50;4960940;29;20054;-79
2022/10/20 08:22:57;;;;;;;24.95;9.63;;;;;;;18.92;65.90;93224.44;4960012;29;20039;-79
2022/10/20 08:25:23;;;;;;;15.13;8.05;;;;;;;19.19;67.97;93227.75;4961654;28;20050;-79
2022/10/20 08:27:48;;;;;;;21.98;10.75;;;;;;;19.08;65.93;93226.56;4943884;29;20027;-80
2022/10/20 08:30:14;;;;;;;33.60;15.05;;;;;;;19.08;64.54;93231.84;4961046;28;20501;-81
2022/10/20 08:32:40;;;;;;;29.88;12.32;;;;;;;19.44;63.96;93218.06;4960276;29;20040;-81
2022/10/20 08:35:06;;;;;;;22.67;10.93;;;;;;;19.48;64.97;93223.50;4961555;28;20031;-82
2022/10/20 08:37:32;;;;;;;29.33;12.70;;;;;;;19.53;62.50;93226.72;4962291;29;20030;-81
2022/10/20 08:39:57;;;;;;;31.42;12.30;;;;;;;19.50;65.03;93229.28;4961489;29;20039;-81
2022/10/20 08:42:24;;;;;;;26.27;11.15;;;;;;;19.36;63.63;93237.47;4961554;28;20077;-81
2022/10/20 08:44:53;;;;;;;33.75;16.75;;;;;;;19.11;66.94;93228.56;4952113;29;20050;-81
2022/10/20 08:47:29;;;;;;;43.28;19.23;;;;;;;18.77;70.21;93226.81;4941393;29;20119;-81
2022/10/20 08:49:55;;;;;;;52.20;24.00;;;;;;;18.40;71.71;93221.97;4944248;29;20411;-81
2022/10/20 08:52:23;;;;;;;64.80;27.33;;;;;;;18.44;72.08;93219.44;4958869;28;20035;-80
2022/10/20 08:54:54;;;;;;;58.80;24.13;;;;;;;18.27;73.61;93218.41;4961299;28;20043;-81
2022/10/20 08:57:31;;;;;;;78.95;32.50;;;;;;;18.17;74.57;93215.31;4960152;29;20038;-80
2022/10/20 09:00:12;;;;;;;61.60;28.30;;;;;;;17.94;76.79;93212.09;4958876;28;20035;-82
2022/10/20 09:02:39;;;;;;;72.53;32.22;;;;;;;17.95;77.53;93218.97;4957631;29;20389;-81
2022/10/20 09:05:06;;;;;;;66.07;28.00;;;;;;;17.91;75.86;93202.13;4959138;29;20034;-81
2022/10/20 09:07:37;;;;;;;73.60;33.50;;;;;;;18.01;74.99;93213.19;4956306;28;20039;-81
2022/10/20 09:10:22;;;;;;;65.80;27.48;;;;;;;18.11;75.97;93206.78;4957361;28;20026;-81
2022/10/20 09:12:48;;;;;;;71.97;32.10;;;;;;;18.08;75.02;93218.78;4960236;29;20043;-80
2022/10/20 09:15:16;;;;;;;69.63;30.95;;;;;;;18.49;75.50;93228.03;4938977;29;20103;-83
2022/10/20 09:17:57;;;;;;;63.30;29.10;;;;;;;18.67;74.85;93223.44;4941448;29;20031;-80
2022/10/20 09:20:38;;;;;;;73.75;31.13;;;;;;;18.90;75.40;93231.16;4942053;29;20127;-80
2022/10/20 09:23:04;;;;;;;70.47;32.05;;;;;;;19.01;72.03;93231.59;4941618;29;20317;-81
2022/10/20 09:25:30;;;;;;;81.65;33.33;;;;;;;19.19;72.09;93227.75;4941252;29;20119;-80
2022/10/20 09:27:55;;;;;;;67.88;30.55;;;;;;;19.34;70.71;93237.00;4939657;29;20051;-82
2022/10/20 09:30:32;;;;;;;77.75;33.65;;;;;;;19.18;71.68;93236.78;4939944;29;20040;-81
2022/10/20 09:32:58;;;;;;;62.65;27.75;;;;;;;19.50;69.88;93221.31;4939841;29;20099;-82
2022/10/20 09:35:26;;;;;;;66.47;30.80;;;;;;;19.50;70.97;93227.38;4940882;29;20191;-82
2022/10/20 09:38:00;;;;;;;65.85;29.35;;;;;;;19.64;71.00;93231.66;4939855;29;20482;-83
2022/10/20 09:40:26;;;;;;;80.65;36.10;;;;;;;19.85;69.13;93229.03;4940052;29;20043;-83
2022/10/20 09:43:01;;;;;;;57.28;27.75;;;;;;;19.48;71.51;93232.25;4939394;29;20453;-83
2022/10/20 09:45:31;;;;;;;65.15;29.02;;;;;;;18.93;74.32;93243.78;4939945;29;20063;-83
2022/10/20 09:48:24;;;;;;;74.22;32.00;;;;;;;19.04;74.11;93238.91;4940129;29;20040;-83
2022/10/20 09:50:54;;;;;;;66.85;32.33;;;;;;;18.98;74.27;93242.81;4939682;29;20040;-81
2022/10/20 09:53:27;;;;;;;72.97;33.75;;;;;;;18.99;73.84;93239.84;4954094;29;20035;-81
2022/10/20 09:55:54;;;;;;;81.88;35.55;;;;;;;18.56;73.09;93237.38;4957888;29;20062;-81
2022/10/20 09:58:34;;;;;;;75.90;36.25;;;;;;;18.46;74.50;93236.63;4958856;28;20055;-82
2022/10/20 10:01:26;;;;;;;64.43;29.52;;;;;;;18.28;76.52;93237.72;4962199;28;20043;-81
2022/10/20 10:04:00;;;;;;;54.83;26.95;;;;;;;17.81;77.93;93229.66;4959070;28;20043;-82
2022/10/20 10:06:37;;;;;;;65.80;28.25;;;;;;;17.65;80.26;93237.31;4961806;28;20046;-81
2022/10/20 10:09:33;;;;;;;71.22;31.80;;;;;;;17.28;81.12;93229.66;4959874;29;20457;-81
2022/10/20 10:12:11;;;;;;;77.13;33.75;;;;;;;17.07;83.47;93239.28;4960268;29;20540;-81
2022/10/20 10:14:52;;;;;;;62.33;29.50;;;;;;;16.97;83.85;93240.31;4959969;29;20066;-81
2022/10/20 10:17:32;;;;;;;56.67;26.08;;;;;;;16.88;84.77;93228.94;4960000;28;20039;-82
2022/10/20 10:19:59;;;;;;;65.72;30.35;;;;;;;16.74;85.13;93225.59;4942747;29;20048;-81
2022/10/20 10:22:26;;;;;;;45.25;20.83;;;;;;;16.68;84.91;93219.66;4941191;29;20046;-81
2022/10/20 10:24:54;;;;;;;46.15;20.65;;;;;;;16.26;86.58;93195.41;4940481;29;20044;-81
2022/10/20 10:27:26;;;;;;;49.45;26.70;;;;;;;16.40;86.63;93206.66;4939904;29;20042;-82
2022/10/20 10:30:14;;;;;;;48.05;20.25;;;;;;;16.43;85.04;93216.59;4940665;29;20046;-81
2022/10/20 10:32:45;;;;;;;37.90;18.60;;;;;;;16.47;85.95;93210.72;4956298;29;20023;-82
2022/10/20 10:35:26;;;;;;;41.60;20.42;;;;;;;16.77;84.62;93219.69;4962464;28;20043;-81
2022/10/20 10:37:53;;;;;;;47.42;21.25;;;;;;;16.77;85.65;93215.19;4960391;29;20090;-81
2022/10/20 10:40:31;;;;;;;58.35;26.42;;;;;;;16.97;85.25;93207.81;4961782;28;20031;-82
2022/10/20 10:43:28;;;;;;;72.70;30.42;;;;;;;17.08;84.02;93219.66;4961296;29;20397;-81
2022/10/20 10:45:57;;;;;;;42.78;19.27;;;;;;;17.13;83.77;93227.44;4962251;29;20178;-81
2022/10/20 10:48:44;;;;;;;48.35;22.55;;;;;;;17.16;83.48;93218.91;4960783;29;20035;-81
2022/10/20 10:51:35;;;;;;;51.63;21.95;;;;;;;17.06;83.43;93216.53;4961880;29;20550;-81
2022/10/20 10:54:31;;;;;;;64.22;26.10;;;;;;;16.95;84.75;93196.75;4959971;29;20383;-81
2022/10/20 10:57:32;;;;;;;68.97;29.15;;;;;;;17.24;83.97;93189.00;4933799;28;20047;-82
2022/10/20 11:00:00;;;;;;;62.80;28.52;;;;;;;17.21;83.56;93187.00;4877262;29;20556;-82
2022/10/20 11:02:54;;;;;;;29.23;13.32;;;;;;;17.36;85.00;93174.38;4960679;29;20243;-82
2022/10/20 11:05:31;;;;;;;44.75;21.77;;;;;;;17.00;86.36;93170.16;4960704;29;20591;-82
2022/10/20 11:08:00;;;;;;;35.08;16.85;;;;;;;16.90;86.65;93175.75;4958668;29;20047;-82
2022/10/20 11:10:46;;;;;;;42.80;17.70;;;;;;;16.99;85.85;93179.19;4959167;28;20043;-82
2022/10/20 11:13:22;;;;;;;44.55;20.20;;;;;;;16.90;86.03;93178.41;4960996;28;20081;-82
2022/10/20 11:15:58;;;;;;;43.88;21.40;;;;;;;16.89;85.93;93179.47;4959984;29;20466;-82
2022/10/20 11:18:51;;;;;;;47.10;21.40;;;;;;;16.94;85.83;93184.63;4959424;29;20405;-82
2022/10/20 11:21:37;;;;;;;67.97;29.73;;;;;;;17.23;85.06;93192.00;4962695;29;20042;-81
2022/10/20 11:24:31;;;;;;;77.40;30.48;;;;;;;17.53;85.20;93189.50;4962608;28;20071;-83
2022/10/20 11:27:06;;;;;;;72.88;30.08;;;;;;;17.78;82.63;93193.22;4961459;29;20063;-82
2022/10/20 11:29:41;;;;;;;73.18;33.40;;;;;;;17.85;80.92;93172.38;4961984;28;20031;-81
2022/10/20 11:32:13;;;;;;;77.00;34.88;;;;;;;18.07;79.74;93190.72;4960886;28;20035;-82
2022/10/20 11:34:57;;;;;;;65.88;30.88;;;;;;;18.03;81.01;93187.13;4961771;28;20031;-81